< < Back
Terminal Aerodrome Forecast


Current Version              Previous Versions:   1  2  3  4  5  6  7  8  9  

Terminal Aerodrome Forecast

940
FTUS42 KJAX 011523 AAF
TAFSSI
TAF AMD
KSSI 011523Z 0115/0212 11005KT P6SM VCSH SCT015 BKN035
      TEMPO 0115/0116 1/2SM +TSRA FG BKN015CB
     FM012000 15008KT P6SM VCTS SCT035CB BKN040
     FM020000 21004KT P6SM SCT040 BKN150=



Latest METAR

915
SAUS70 KWBC 011800 RRM
MTRSSI
METAR KSSI 011753Z AUTO 05004KT 1 1/2SM +TSRA BR OVC035 24/23 A3010 RMK
AO2 LTG DSNT E AND W RAB12 TSE04B13 SLP193 P0058 60153
T02390233 10267 20233 56003


USA.gov is the U.S. government's official web portal to all federal, state and local government web resources and services.